LSZH/ZRH METAR and TAF weather

Enter ICAO airport designator
Station Type Date Time Source
LSZH METAR 2021/07/28 20:20 UTC NOAA

LSZH 282020Z VRB02KT 9999 FEW032 SCT050 19/16 Q1017 NOSIG


Station Type Date Time Source
LSZH Decoded METAR 2021/07/28 20:20 UTC NOAA

Zurich-Kloten, Switzerland (LSZH) 47-29N 008-32E 432M
Jul 28, 2021 - 04:20 PM EDT / 2021.07.28 2020 UTC
Wind: Variable at 2 MPH (2 KT):0
Visibility: greater than 7 mile(s):0
Sky conditions: partly cloudy
Temperature: 66 F (19 C)
Dew Point: 60 F (16 C)
Relative Humidity: 82%
Pressure (altimeter): 30.03 in. Hg (1017 hPa)
ob: LSZH 282020Z VRB02KT 9999 FEW032 SCT050 19/16 Q1017 NOSIG
cycle: 20

Station Type Date Time Source
LSZH TAF 2021/07/28 21:37 UTC NOAA

TAF LSZH 282025Z 2821/3003 VRB02KT 9999 FEW032 BKN050 TX26/2915Z TN13/2903Z PROB40 2902/2906 1200 PRFG PROB30 2903/2906 0600 FG VV002
BECMG 2916/2918 CAVOK

Example: see airport list